Time;durP1;ratioP1;P1;durP2;ratioP2;P2;SDS_P1;SDS_P2;PMS_P1;PMS_P2;Temp;Humidity;BMP_temperature;BMP_pressure;BME280_temperature;BME280_humidity;BME280_pressure;Samples;Min_cycle;Max_cycle;Signal;HPM_P1;HPM_P2
2023/05/14 00:02:12;;;;;;;15.00;10.95;;;;;;;12.08;74.07;99564.41;4287078;33;34119;-85
2023/05/14 00:04:40;;;;;;;13.10;10.75;;;;;;;12.08;74.68;99555.75;4287666;33;34494;-87
2023/05/14 00:07:08;;;;;;;13.62;10.38;;;;;;;12.12;74.87;99557.53;4287609;33;33492;-87
2023/05/14 00:09:35;;;;;;;15.73;10.82;;;;;;;11.79;75.64;99553.63;4287044;33;33480;-86
2023/05/14 00:12:03;;;;;;;12.95;9.85;;;;;;;12.32;74.16;99556.06;4287233;33;33686;-86
2023/05/14 00:14:30;;;;;;;13.00;9.32;;;;;;;11.90;75.04;99551.22;4287508;33;33973;-88
2023/05/14 00:16:58;;;;;;;13.13;10.15;;;;;;;11.92;74.96;99552.09;4287034;33;34394;-85
2023/05/14 00:19:26;;;;;;;14.85;10.75;;;;;;;12.11;74.05;99542.81;4287318;33;33602;-85
2023/05/14 00:21:53;;;;;;;14.73;10.85;;;;;;;12.00;74.24;99542.66;4287395;33;34188;-86
2023/05/14 00:24:21;;;;;;;14.40;10.55;;;;;;;11.91;75.13;99547.75;4287098;33;34738;-85
2023/05/14 00:26:49;;;;;;;12.10;9.98;;;;;;;11.95;74.96;99544.34;4287314;33;33382;-87
2023/05/14 00:29:16;;;;;;;13.82;10.27;;;;;;;12.16;74.43;99543.75;4285725;33;34568;-88
2023/05/14 00:31:44;;;;;;;11.50;10.15;;;;;;;11.93;74.89;99541.72;4284024;33;34214;-86
2023/05/14 00:34:11;;;;;;;14.45;10.07;;;;;;;12.10;74.29;99534.13;4287113;33;33592;-86
2023/05/14 00:36:39;;;;;;;15.70;11.98;;;;;;;12.05;74.32;99530.63;4285044;33;33435;-89
2023/05/14 00:39:06;;;;;;;13.50;10.02;;;;;;;11.98;74.72;99530.53;4284456;33;34767;-86
2023/05/14 00:41:34;;;;;;;14.77;10.80;;;;;;;11.72;75.84;99530.13;4287007;33;34591;-87
2023/05/14 00:44:02;;;;;;;12.32;10.77;;;;;;;11.66;76.16;99530.91;4283209;33;34075;-87
2023/05/14 00:46:29;;;;;;;17.08;11.32;;;;;;;11.56;76.61;99522.13;4279686;33;33057;-87
2023/05/14 00:48:57;;;;;;;13.77;10.75;;;;;;;11.88;76.33;99519.13;4285001;33;34694;-86
2023/05/14 00:51:25;;;;;;;12.07;10.23;;;;;;;11.99;74.38;99517.53;4286295;33;34074;-85
2023/05/14 00:53:54;;;;;;;14.13;10.43;;;;;;;11.95;75.04;99513.16;4284921;33;34541;-88
2023/05/14 00:56:22;;;;;;;12.30;10.45;;;;;;;11.92;74.55;99518.31;4274573;33;33357;-90
2023/05/14 00:58:49;;;;;;;16.15;10.88;;;;;;;11.89;75.09;99515.66;4270675;33;34695;-87
2023/05/14 01:01:16;;;;;;;15.50;10.27;;;;;;;12.21;73.37;99510.88;4284905;33;35133;-86
2023/05/14 01:03:44;;;;;;;16.37;11.27;;;;;;;11.77;74.47;99498.16;4284855;33;35255;-87
2023/05/14 01:06:27;;;;;;;12.95;10.05;;;;;;;11.75;75.02;99499.03;4265397;33;34315;-88
2023/05/14 01:09:07;;;;;;;12.18;9.75;;;;;;;11.75;75.04;99494.69;4281885;33;34634;-87
2023/05/14 01:11:41;;;;;;;14.45;10.05;;;;;;;12.06;73.59;99498.56;4285357;33;34026;-87
2023/05/14 01:14:22;;;;;;;13.30;9.98;;;;;;;11.84;74.11;99493.97;4282181;33;33766;-86
2023/05/14 01:16:53;;;;;;;12.68;9.80;;;;;;;12.03;73.20;99489.87;4268787;33;34991;-87
2023/05/14 01:19:28;;;;;;;12.30;10.18;;;;;;;12.15;72.43;99493.47;4270659;33;36328;-87
2023/05/14 01:21:56;;;;;;;14.10;9.55;;;;;;;12.13;72.36;99487.41;4273908;33;34774;-87
2023/05/14 01:24:24;;;;;;;12.85;9.90;;;;;;;12.10;72.46;99484.75;4286981;33;33480;-87
2023/05/14 01:26:52;;;;;;;11.85;9.52;;;;;;;12.04;72.64;99486.41;4278509;33;34121;-89
2023/05/14 01:29:25;;;;;;;10.90;9.43;;;;;;;11.82;73.54;99487.81;4271139;33;34648;-89
2023/05/14 01:31:54;;;;;;;17.55;10.15;;;;;;;12.00;73.05;99479.44;4271606;33;33523;-90
2023/05/14 01:34:23;;;;;;;11.65;9.15;;;;;;;11.90;73.22;99481.06;4265758;33;33779;-86
2023/05/14 01:36:52;;;;;;;12.18;9.25;;;;;;;11.93;72.64;99470.69;4265069;33;33620;-87
2023/05/14 01:39:21;;;;;;;13.40;10.18;;;;;;;12.15;72.04;99470.06;4284232;33;34526;-86
2023/05/14 01:41:50;;;;;;;12.90;9.95;;;;;;;12.07;72.24;99461.34;4279735;33;34425;-86
2023/05/14 01:44:18;;;;;;;13.45;10.02;;;;;;;11.91;72.94;99459.41;4282948;33;33693;-89
2023/05/14 01:46:46;;;;;;;15.00;9.35;;;;;;;12.01;73.03;99450.88;4278717;33;34167;-89
2023/05/14 01:49:14;;;;;;;15.32;9.80;;;;;;;11.92;73.21;99453.34;4283260;33;34601;-87
2023/05/14 01:51:42;;;;;;;12.40;8.68;;;;;;;11.96;72.97;99446.47;4286591;33;34762;-87
2023/05/14 01:54:10;;;;;;;11.27;9.48;;;;;;;11.92;72.67;99440.38;4286794;33;34097;-86
2023/05/14 01:56:37;;;;;;;14.02;10.35;;;;;;;12.04;72.65;99434.44;4286480;33;33180;-88
2023/05/14 01:59:05;;;;;;;13.43;9.80;;;;;;;11.98;72.67;99430.06;4273126;33;33886;-88
2023/05/14 02:01:33;;;;;;;11.68;9.80;;;;;;;12.11;72.78;99436.25;4273372;33;33600;-87
2023/05/14 02:04:01;;;;;;;12.07;9.48;;;;;;;12.15;71.64;99438.88;4282570;33;34089;-88
2023/05/14 02:06:30;;;;;;;10.50;8.73;;;;;;;12.14;72.02;99436.28;4284785;33;34214;-92
2023/05/14 02:08:57;;;;;;;13.18;8.77;;;;;;;12.20;71.60;99436.37;4276891;33;33758;-86
2023/05/14 02:11:25;;;;;;;13.10;9.30;;;;;;;12.32;71.19;99433.88;4284804;33;34218;-87
2023/05/14 02:13:53;;;;;;;12.30;9.40;;;;;;;12.35;70.95;99431.31;4271492;33;34595;-87
2023/05/14 02:16:20;;;;;;;12.10;8.98;;;;;;;12.15;70.91;99444.09;4285783;33;33454;-89
2023/05/14 02:18:51;;;;;;;12.37;9.32;;;;;;;12.13;71.54;99430.22;4288182;33;34481;-89
2023/05/14 02:21:19;;;;;;;13.55;10.30;;;;;;;12.31;70.67;99444.25;4280305;33;34991;-87
2023/05/14 02:23:48;;;;;;;12.20;8.77;;;;;;;12.11;71.46;99439.72;4266798;33;34239;-88
2023/05/14 02:26:15;;;;;;;12.40;8.30;;;;;;;11.85;72.48;99433.34;4282737;33;33488;-87
2023/05/14 02:28:44;;;;;;;12.68;9.15;;;;;;;12.36;70.78;99433.06;4282309;33;33994;-86
2023/05/14 02:31:13;;;;;;;13.00;9.57;;;;;;;12.16;71.36;99427.66;4279931;33;34817;-89
2023/05/14 02:33:41;;;;;;;13.55;9.10;;;;;;;11.71;72.55;99435.78;4287244;33;35053;-87
2023/05/14 02:36:09;;;;;;;12.23;8.57;;;;;;;11.85;72.09;99423.81;4283703;33;33050;-90
2023/05/14 02:38:37;;;;;;;12.07;9.18;;;;;;;12.07;72.09;99430.16;4281690;33;34045;-88
2023/05/14 02:41:04;;;;;;;10.80;9.32;;;;;;;12.35;70.71;99430.41;4280462;33;33927;-87
2023/05/14 02:43:32;;;;;;;13.60;9.05;;;;;;;12.35;70.63;99438.22;4287388;33;34013;-87
2023/05/14 02:45:59;;;;;;;11.48;8.77;;;;;;;12.07;71.23;99430.16;4284428;33;33329;-88
2023/05/14 02:48:27;;;;;;;9.75;8.70;;;;;;;11.98;71.77;99427.47;4280170;33;33527;-89
2023/05/14 02:50:54;;;;;;;12.68;9.18;;;;;;;12.51;70.03;99437.53;4287531;33;35025;-88
2023/05/14 02:53:22;;;;;;;11.45;8.75;;;;;;;12.69;69.60;99430.72;4288036;33;34606;-89
2023/05/14 02:55:49;;;;;;;11.40;9.10;;;;;;;12.25;70.53;99423.41;4287890;33;34211;-88
2023/05/14 02:58:17;;;;;;;11.43;9.02;;;;;;;12.15;70.90;99423.28;4282475;33;33769;-90
2023/05/14 03:00:51;;;;;;;12.73;9.20;;;;;;;12.45;69.98;99423.59;4282304;33;33762;-89
2023/05/14 03:03:19;;;;;;;12.93;8.20;;;;;;;12.45;69.98;99421.87;4288023;33;34824;-89
2023/05/14 03:05:47;;;;;;;9.82;8.20;;;;;;;12.09;70.97;99412.84;4276517;33;34406;-88
2023/05/14 03:08:15;;;;;;;11.45;9.30;;;;;;;12.27;71.02;99408.69;4287941;33;33452;-89
2023/05/14 03:10:42;;;;;;;14.27;8.70;;;;;;;12.21;71.22;99419.03;4287432;33;35501;-87
2023/05/14 03:13:10;;;;;;;11.48;9.07;;;;;;;11.97;71.97;99417.03;4287754;33;33707;-86
2023/05/14 03:15:37;;;;;;;11.38;9.23;;;;;;;11.96;71.62;99423.97;4275960;33;33477;-87
2023/05/14 03:18:05;;;;;;;13.23;8.73;;;;;;;11.73;72.86;99418.47;4285341;33;34566;-87
2023/05/14 03:20:33;;;;;;;11.32;9.35;;;;;;;11.84;72.88;99410.84;4287944;33;34136;-87
2023/05/14 03:23:00;;;;;;;12.80;9.20;;;;;;;11.67;73.63;99418.41;4286946;33;34616;-90
2023/05/14 03:25:28;;;;;;;12.10;8.93;;;;;;;11.68;72.86;99413.22;4286692;33;33792;-87
2023/05/14 03:27:55;;;;;;;12.07;9.48;;;;;;;11.48;74.58;99406.00;4276858;33;33727;-88
2023/05/14 03:30:23;;;;;;;15.05;9.35;;;;;;;11.46;74.66;99403.41;4287995;33;33951;-88
2023/05/14 03:32:51;;;;;;;12.43;9.38;;;;;;;11.65;74.11;99399.31;4287816;33;33798;-89
2023/05/14 03:35:19;;;;;;;10.85;8.77;;;;;;;11.52;74.63;99406.09;4276388;33;33695;-87
2023/05/14 03:37:46;;;;;;;14.07;9.07;;;;;;;11.80;73.33;99409.03;4275993;33;33995;-88
2023/05/14 03:40:14;;;;;;;12.48;8.43;;;;;;;11.73;73.02;99412.41;4287429;33;32606;-89
2023/05/14 03:42:42;;;;;;;10.25;9.15;;;;;;;11.59;74.16;99407.94;4287541;33;34740;-87
2023/05/14 03:45:10;;;;;;;14.43;8.77;;;;;;;11.45;74.11;99412.06;4276968;33;33633;-87
2023/05/14 03:47:37;;;;;;;14.25;8.82;;;;;;;11.82;73.08;99407.31;4285069;33;33866;-88
2023/05/14 03:50:06;;;;;;;10.40;7.50;;;;;;;11.89;72.74;99407.44;4286824;33;34425;-88
2023/05/14 03:52:33;;;;;;;10.07;7.50;;;;;;;12.05;71.39;99395.50;4287460;33;34283;-87
2023/05/14 03:55:02;;;;;;;12.98;8.38;;;;;;;11.76;72.46;99386.47;4277564;33;33335;-87
2023/05/14 03:57:29;;;;;;;10.13;8.25;;;;;;;11.64;72.60;99395.84;4285926;33;34813;-89
2023/05/14 03:59:57;;;;;;;10.95;7.78;;;;;;;11.86;72.18;99393.56;4287344;33;34071;-87
2023/05/14 04:02:25;;;;;;;11.65;7.00;;;;;;;11.84;71.64;99390.06;4287454;33;34837;-90
2023/05/14 04:04:54;;;;;;;11.02;8.43;;;;;;;11.66;72.04;99391.53;4287302;33;33474;-87
2023/05/14 04:07:22;;;;;;;10.60;7.80;;;;;;;12.02;70.99;99400.66;4286935;33;33748;-89
2023/05/14 04:09:49;;;;;;;10.27;6.90;;;;;;;11.84;71.04;99403.03;4284883;33;33935;-85
2023/05/14 04:12:17;;;;;;;9.70;6.87;;;;;;;11.92;70.81;99398.78;4284220;33;34057;-89
2023/05/14 04:14:45;;;;;;;12.25;7.97;;;;;;;12.01;70.11;99391.13;4287376;33;33467;-91
2023/05/14 04:17:12;;;;;;;10.20;6.82;;;;;;;11.97;70.32;99391.94;4287380;33;33847;-89
2023/05/14 04:19:40;;;;;;;10.68;7.35;;;;;;;11.79;70.64;99391.72;4285810;33;35086;-86
2023/05/14 04:22:07;;;;;;;10.57;7.32;;;;;;;12.10;70.53;99392.94;4282498;33;33736;-87
2023/05/14 04:24:35;;;;;;;9.75;7.03;;;;;;;12.07;70.59;99395.50;4281628;33;33947;-87
2023/05/14 04:27:03;;;;;;;9.70;6.20;;;;;;;11.93;70.10;99392.75;4284700;33;33727;-89
2023/05/14 04:29:30;;;;;;;10.15;7.28;;;;;;;11.84;70.81;99395.25;4275501;33;34038;-90
2023/05/14 04:31:58;;;;;;;11.35;7.12;;;;;;;11.78;71.18;99385.63;4287078;33;33583;-89
2023/05/14 04:34:26;;;;;;;9.30;6.82;;;;;;;12.24;69.52;99390.47;4280937;33;33107;-85
2023/05/14 04:36:53;;;;;;;9.13;6.82;;;;;;;12.20;69.32;99384.37;4283428;33;33619;-87
2023/05/14 04:39:21;;;;;;;10.68;6.70;;;;;;;12.25;69.28;99387.88;4285966;33;33971;-87
2023/05/14 04:41:48;;;;;;;9.88;6.68;;;;;;;12.27;69.08;99393.09;4271454;33;33821;-85
2023/05/14 04:44:16;;;;;;;10.77;6.70;;;;;;;12.37;68.64;99397.53;4278879;33;32952;-85
2023/05/14 04:46:43;;;;;;;11.27;6.68;;;;;;;12.37;68.40;99394.91;4287050;33;33937;-86
2023/05/14 04:49:11;;;;;;;8.75;6.68;;;;;;;12.04;69.67;99393.72;4286832;33;34251;-85
2023/05/14 04:51:38;;;;;;;12.27;6.93;;;;;;;12.17;68.76;99394.75;4286734;33;34704;-84
2023/05/14 04:54:06;;;;;;;8.60;6.50;;;;;;;12.45;68.64;99400.19;4283012;33;33542;-85
2023/05/14 04:56:34;;;;;;;10.60;6.70;;;;;;;12.45;68.39;99390.66;4281324;33;34611;-87
2023/05/14 04:59:01;;;;;;;7.97;6.62;;;;;;;12.45;67.66;99388.06;4285411;33;33295;-85
2023/05/14 05:01:29;;;;;;;11.10;6.62;;;;;;;12.30;68.40;99391.37;4286424;33;34168;-86
2023/05/14 05:03:57;;;;;;;8.98;6.68;;;;;;;12.36;68.15;99377.59;4263393;33;31962;-86
2023/05/14 05:06:24;;;;;;;9.23;6.20;;;;;;;12.53;68.01;99381.19;4286362;33;33483;-85
2023/05/14 05:08:51;;;;;;;9.43;7.10;;;;;;;12.35;67.69;99386.22;4286893;33;34095;-86
2023/05/14 05:11:20;;;;;;;8.20;6.20;;;;;;;12.22;69.18;99389.59;4287274;33;34034;-90
2023/05/14 05:13:47;;;;;;;9.95;7.32;;;;;;;12.09;69.01;99379.06;4275547;33;34502;-84
2023/05/14 05:16:14;;;;;;;11.38;7.53;;;;;;;12.40;68.24;99385.44;4284970;33;33629;-86
2023/05/14 05:18:43;;;;;;;10.30;7.10;;;;;;;12.65;67.91;99377.81;4286809;33;33934;-88
2023/05/14 05:21:10;;;;;;;12.35;7.32;;;;;;;12.29;67.78;99383.59;4286998;33;34054;-88
2023/05/14 05:23:38;;;;;;;10.13;6.80;;;;;;;12.46;68.72;99375.91;4286970;33;34330;-91
2023/05/14 05:26:06;;;;;;;12.15;7.03;;;;;;;12.76;67.77;99377.91;4283820;33;34172;-88
2023/05/14 05:28:33;;;;;;;12.55;6.35;;;;;;;12.21;68.56;99380.06;4286738;33;35474;-87
2023/05/14 05:31:01;;;;;;;8.98;6.43;;;;;;;12.07;69.60;99380.78;4287156;33;33458;-87
2023/05/14 05:33:28;;;;;;;9.20;6.47;;;;;;;12.12;68.79;99368.72;4275064;33;33311;-85
2023/05/14 05:35:56;;;;;;;11.40;6.62;;;;;;;12.01;69.77;99379.81;4285368;33;34684;-87
2023/05/14 05:38:23;;;;;;;12.30;7.00;;;;;;;12.14;69.46;99379.09;4286623;33;34751;-88
2023/05/14 05:40:51;;;;;;;10.05;6.53;;;;;;;12.01;69.58;99374.63;4281421;33;34595;-86
2023/05/14 05:43:18;;;;;;;8.25;6.30;;;;;;;12.04;69.40;99372.94;4273832;33;34248;-85
2023/05/14 05:45:46;;;;;;;9.75;6.62;;;;;;;12.20;68.97;99379.19;4285976;33;33866;-87
2023/05/14 05:48:14;;;;;;;10.18;6.90;;;;;;;11.97;70.10;99380.66;4286578;33;33838;-85
2023/05/14 05:50:43;;;;;;;11.70;7.55;;;;;;;12.32;69.10;99375.81;4286912;33;33588;-84
2023/05/14 05:53:11;;;;;;;10.50;7.00;;;;;;;12.16;69.89;99383.47;4287239;33;33196;-84
2023/05/14 05:55:39;;;;;;;10.98;7.12;;;;;;;11.88;69.73;99382.31;4286508;33;33846;-84
2023/05/14 05:58:07;;;;;;;12.85;7.53;;;;;;;12.38;68.94;99383.66;4286940;33;33740;-85
2023/05/14 06:00:34;;;;;;;10.27;7.35;;;;;;;12.24;69.00;99390.47;4287004;33;33152;-86
2023/05/14 06:03:02;;;;;;;9.07;6.47;;;;;;;12.23;69.62;99384.37;4286751;33;33298;-86
2023/05/14 06:05:29;;;;;;;10.50;7.05;;;;;;;12.20;69.44;99383.47;4276692;33;33806;-85
2023/05/14 06:07:57;;;;;;;10.82;7.57;;;;;;;12.24;69.23;99396.53;4285916;33;34271;-86
2023/05/14 06:10:25;;;;;;;14.70;7.75;;;;;;;12.46;69.15;99397.59;4286514;33;34748;-88
2023/05/14 06:12:52;;;;;;;9.90;7.18;;;;;;;12.86;68.41;99388.38;4280553;33;33397;-86
2023/05/14 06:15:20;;;;;;;12.80;7.70;;;;;;;12.96;68.02;99389.34;4285977;33;34741;-88
2023/05/14 06:17:47;;;;;;;10.48;6.97;;;;;;;12.74;68.47;99392.63;4273168;33;34102;-85
2023/05/14 06:20:15;;;;;;;11.70;8.85;;;;;;;12.49;69.03;99397.63;4286216;33;33882;-87
2023/05/14 06:22:43;;;;;;;10.30;7.65;;;;;;;12.32;70.69;99399.22;4278265;33;33471;-86
2023/05/14 06:25:10;;;;;;;11.05;7.95;;;;;;;12.46;70.24;99401.94;4280052;33;34730;-87
2023/05/14 06:27:38;;;;;;;12.07;8.05;;;;;;;12.48;70.46;99395.03;4286516;33;34133;-86
2023/05/14 06:30:06;;;;;;;10.63;8.65;;;;;;;12.33;70.66;99395.75;4272745;33;34090;-86
2023/05/14 06:32:33;;;;;;;12.07;8.52;;;;;;;12.47;71.23;99396.75;4270989;33;34399;-85
2023/05/14 06:35:01;;;;;;;12.13;8.60;;;;;;;12.38;71.48;99392.31;4285963;33;33561;-86
2023/05/14 06:37:28;;;;;;;10.98;8.55;;;;;;;12.39;71.09;99396.69;4272067;33;33827;-85
2023/05/14 06:39:56;;;;;;;13.77;9.10;;;;;;;12.41;71.59;99394.09;4275624;33;33147;-87
2023/05/14 06:42:25;;;;;;;12.35;8.88;;;;;;;12.21;72.57;99382.66;4285785;33;33852;-85
2023/05/14 06:44:53;;;;;;;15.55;9.20;;;;;;;12.06;73.00;99380.75;4285571;33;33759;-86
2023/05/14 06:47:21;;;;;;;13.13;9.23;;;;;;;11.61;74.09;99376.78;4284998;33;34167;-85
2023/05/14 06:49:48;;;;;;;12.25;8.63;;;;;;;11.81;73.81;99377.00;4258615;33;34104;-87
2023/05/14 06:52:16;;;;;;;12.73;9.45;;;;;;;11.87;73.35;99384.91;4277359;33;34277;-87
2023/05/14 06:54:43;;;;;;;11.80;9.70;;;;;;;11.64;74.50;99369.03;4281603;33;33810;-88
2023/05/14 06:57:11;;;;;;;12.43;9.65;;;;;;;11.85;74.87;99381.41;4285834;33;34666;-88
2023/05/14 06:59:38;;;;;;;12.90;9.30;;;;;;;11.59;75.49;99379.34;4273043;33;33743;-87
2023/05/14 07:02:06;;;;;;;12.27;10.10;;;;;;;11.92;74.61;99373.69;4277991;33;33050;-88
2023/05/14 07:04:35;;;;;;;10.35;9.15;;;;;;;12.02;74.48;99364.28;4287623;33;33742;-87
2023/05/14 07:07:03;;;;;;;12.32;9.45;;;;;;;12.39;73.10;99368.09;4287774;33;34786;-88
2023/05/14 07:09:30;;;;;;;12.13;10.10;;;;;;;12.35;73.40;99362.81;4286800;33;34325;-87
2023/05/14 07:11:58;;;;;;;15.32;9.43;;;;;;;11.99;74.64;99353.84;4284836;33;34331;-88
2023/05/14 07:14:25;;;;;;;12.10;9.93;;;;;;;12.29;73.74;99357.59;4287672;33;33902;-86
2023/05/14 07:16:53;;;;;;;13.70;9.85;;;;;;;12.19;74.41;99359.22;4287235;33;34884;-87
2023/05/14 07:19:21;;;;;;;12.45;10.30;;;;;;;12.11;74.56;99359.16;4274590;33;34594;-86
2023/05/14 07:21:48;;;;;;;15.27;9.52;;;;;;;12.19;74.92;99351.44;4277904;33;33271;-85
2023/05/14 07:24:16;;;;;;;14.35;10.38;;;;;;;11.95;74.85;99346.00;4284521;33;32297;-87
2023/05/14 07:26:43;;;;;;;13.10;9.88;;;;;;;12.21;74.83;99348.84;4274782;33;34657;-87
2023/05/14 07:29:11;;;;;;;13.50;10.82;;;;;;;12.34;74.40;99346.34;4270289;33;33918;-88
2023/05/14 07:31:39;;;;;;;11.90;9.15;;;;;;;12.30;74.93;99349.78;4287388;33;34424;-87
2023/05/14 07:34:07;;;;;;;14.32;9.75;;;;;;;12.28;74.82;99353.25;4266865;33;228291;-87
2023/05/14 07:36:34;;;;;;;11.77;9.10;;;;;;;12.24;75.17;99356.69;4287002;33;34690;-88
2023/05/14 07:39:02;;;;;;;12.40;9.75;;;;;;;12.47;74.71;99347.34;4287797;33;34045;-87
2023/05/14 07:41:29;;;;;;;11.95;9.43;;;;;;;12.64;73.07;99332.72;4293898;33;34503;-88
2023/05/14 07:43:57;;;;;;;12.73;10.27;;;;;;;12.55;74.30;99339.59;4287685;33;33949;-89
2023/05/14 07:46:25;;;;;;;14.25;10.35;;;;;;;12.84;74.08;99343.28;4282659;33;34263;-87
2023/05/14 07:48:52;;;;;;;12.88;9.80;;;;;;;12.98;74.47;99330.34;4286502;33;32805;-88
2023/05/14 07:51:19;;;;;;;16.33;10.05;;;;;;;12.85;74.22;99331.16;4287565;33;34344;-89
2023/05/14 07:53:47;;;;;;;11.50;9.15;;;;;;;12.92;74.04;99332.94;4287522;33;34513;-85
2023/05/14 07:56:14;;;;;;;13.43;10.00;;;;;;;12.71;73.77;99330.19;4283595;33;33365;-85
2023/05/14 07:58:42;;;;;;;11.02;9.43;;;;;;;13.19;73.51;99315.72;4287682;33;34275;-84
2023/05/14 08:01:10;;;;;;;12.35;10.27;;;;;;;13.13;73.21;99319.16;4286899;33;33630;-85
2023/05/14 08:03:38;;;;;;;12.95;9.52;;;;;;;13.29;74.41;99315.78;4287550;33;33971;-85
2023/05/14 08:06:05;;;;;;;16.00;9.20;;;;;;;13.68;73.10;99314.19;4287287;33;34146;-85
2023/05/14 08:08:33;;;;;;;14.40;9.55;;;;;;;13.67;72.09;99304.59;4287097;33;34764;-85
2023/05/14 08:11:02;;;;;;;13.20;9.90;;;;;;;13.42;72.18;99301.09;4287036;33;33456;-86
2023/05/14 08:13:30;;;;;;;14.43;9.60;;;;;;;13.39;72.83;99295.84;4274259;33;33717;-86
2023/05/14 08:15:57;;;;;;;11.35;10.15;;;;;;;13.25;72.90;99290.59;4259481;33;33704;-87
2023/05/14 08:18:26;;;;;;;13.80;9.57;;;;;;;13.28;73.26;99293.22;4281030;33;34569;-88
2023/05/14 08:20:56;;;;;;;14.45;9.85;;;;;;;13.17;74.48;99288.78;4286970;33;34237;-88
2023/05/14 08:23:25;;;;;;;13.73;10.05;;;;;;;13.29;74.06;99286.25;4287445;33;34088;-86
2023/05/14 08:25:52;;;;;;;16.37;10.60;;;;;;;13.25;75.10;99285.37;4287459;33;34933;-85
2023/05/14 08:28:27;;;;;;;14.85;10.90;;;;;;;13.12;73.71;99280.97;4288102;33;33892;-85
2023/05/14 08:30:56;;;;;;;14.75;11.25;;;;;;;13.47;73.71;99282.84;4279370;33;34409;-86
2023/05/14 08:33:24;;;;;;;15.02;11.02;;;;;;;13.35;74.36;99270.66;4268295;33;33761;-88
2023/05/14 08:35:52;;;;;;;12.48;9.80;;;;;;;13.51;73.89;99277.66;4283581;33;33040;-87
2023/05/14 08:38:20;;;;;;;13.95;10.68;;;;;;;13.27;73.14;99269.78;4280856;33;33810;-86
2023/05/14 08:40:48;;;;;;;14.45;10.13;;;;;;;13.14;74.55;99272.31;4272655;33;33073;-90
2023/05/14 08:43:19;;;;;;;13.57;10.80;;;;;;;13.04;73.88;99269.66;4272325;33;33463;-86
2023/05/14 08:45:48;;;;;;;13.82;10.82;;;;;;;13.24;74.51;99267.16;4286039;33;33951;-87
2023/05/14 08:48:21;;;;;;;14.65;10.07;;;;;;;13.40;75.07;99268.94;4267638;33;34626;-87
2023/05/14 08:50:49;;;;;;;13.32;10.82;;;;;;;13.42;73.50;99262.03;4259589;33;33171;-87
2023/05/14 08:53:17;;;;;;;11.65;9.90;;;;;;;13.50;74.05;99268.13;4267465;33;33791;-87
2023/05/14 08:55:45;;;;;;;15.23;10.88;;;;;;;13.25;74.44;99268.91;4277283;33;33826;-87
2023/05/14 08:58:15;;;;;;;13.40;10.80;;;;;;;13.46;74.14;99258.56;4278005;33;34037;-88
2023/05/14 09:00:43;;;;;;;14.35;10.07;;;;;;;13.81;74.56;99276.00;4285889;33;33359;-87
2023/05/14 09:03:11;;;;;;;13.73;10.13;;;;;;;13.39;74.86;99268.06;4285371;33;34714;-85
2023/05/14 09:05:39;;;;;;;14.18;10.85;;;;;;;13.49;73.53;99270.72;4272642;33;34096;-86
2023/05/14 09:08:07;;;;;;;13.45;11.05;;;;;;;13.30;74.47;99270.66;4272019;33;34477;-85
2023/05/14 09:10:34;;;;;;;15.48;10.60;;;;;;;13.58;74.36;99270.72;4284778;33;33119;-91
2023/05/14 09:13:03;;;;;;;12.10;10.52;;;;;;;13.40;74.59;99266.34;4285597;33;33581;-89
2023/05/14 09:15:31;;;;;;;14.10;10.85;;;;;;;13.44;74.62;99262.88;4272633;33;34062;-84
2023/05/14 09:17:59;;;;;;;15.95;11.05;;;;;;;13.50;73.26;99257.69;4273084;33;34084;-84
2023/05/14 09:20:27;;;;;;;12.50;10.68;;;;;;;13.35;75.10;99258.53;4285777;33;33504;-87
2023/05/14 09:22:55;;;;;;;14.68;11.43;;;;;;;13.32;75.98;99260.25;4285336;33;34371;-89
2023/05/14 09:25:26;;;;;;;15.98;11.25;;;;;;;13.34;75.78;99251.59;4287214;33;34270;-90
2023/05/14 09:27:54;;;;;;;15.02;11.60;;;;;;;13.53;75.13;99244.69;4285653;33;33847;-87
2023/05/14 09:30:25;;;;;;;12.65;10.80;;;;;;;13.52;74.59;99239.44;4279747;33;33546;-85
2023/05/14 09:32:53;;;;;;;17.02;12.30;;;;;;;13.76;74.28;99230.81;4280728;33;33652;-86
2023/05/14 09:35:22;;;;;;;13.45;11.10;;;;;;;13.90;73.61;99231.69;4283518;33;36240;-89
2023/05/14 09:37:54;;;;;;;15.43;11.75;;;;;;;13.84;74.37;99231.69;4285471;33;34465;-87
2023/05/14 09:40:22;;;;;;;15.05;11.45;;;;;;;13.71;74.82;99229.94;4286610;33;34113;-89
2023/05/14 09:42:51;;;;;;;16.48;12.05;;;;;;;13.76;74.03;99228.22;4286277;33;34130;-89
2023/05/14 09:45:18;;;;;;;15.32;11.30;;;;;;;13.81;75.18;99209.09;4286191;33;33944;-86
2023/05/14 09:47:46;;;;;;;15.18;12.15;;;;;;;13.57;76.17;99217.78;4286967;33;33764;-87
2023/05/14 09:50:14;;;;;;;15.68;11.57;;;;;;;14.17;73.80;99215.19;4286423;33;33651;-89
2023/05/14 09:52:41;;;;;;;15.30;11.88;;;;;;;14.20;73.24;99209.94;4273733;33;33842;-89
2023/05/14 09:55:09;;;;;;;14.95;10.85;;;;;;;14.03;73.91;99207.38;4286435;33;33959;-85
2023/05/14 09:57:36;;;;;;;14.60;11.63;;;;;;;14.32;72.90;99202.13;4286698;33;33941;-87
2023/05/14 10:00:05;;;;;;;14.95;11.57;;;;;;;13.95;73.08;99198.69;4274130;33;33385;-85
2023/05/14 10:02:37;;;;;;;14.25;11.85;;;;;;;14.37;72.79;99183.84;4286832;33;34932;-87
2023/05/14 10:05:06;;;;;;;16.27;10.85;;;;;;;14.38;72.78;99167.31;4273682;33;34040;-85
2023/05/14 10:07:43;;;;;;;14.98;11.18;;;;;;;14.17;72.62;99163.03;4272396;33;33964;-89
2023/05/14 10:10:15;;;;;;;16.60;10.95;;;;;;;13.67;74.99;99165.66;4273475;33;34402;-86
2023/05/14 10:12:47;;;;;;;14.27;10.85;;;;;;;13.85;75.03;99150.03;4286366;33;33947;-85
2023/05/14 10:15:19;;;;;;;14.45;11.77;;;;;;;14.06;74.87;99133.53;4250036;33;34604;-85
2023/05/14 10:17:55;;;;;;;14.00;11.35;;;;;;;14.19;75.35;99129.12;4273348;33;34960;-87
2023/05/14 10:20:25;;;;;;;14.10;11.25;;;;;;;14.28;73.38;99119.56;4273113;33;32747;-87
2023/05/14 10:22:53;;;;;;;14.05;10.90;;;;;;;14.25;73.91;99103.06;4249996;33;33671;-90
2023/05/14 10:25:21;;;;;;;14.85;11.23;;;;;;;13.93;75.03;99098.75;4286085;33;33964;-87
2023/05/14 10:27:49;;;;;;;13.77;10.70;;;;;;;14.20;74.92;99105.66;4273263;33;33939;-86
2023/05/14 10:30:20;;;;;;;14.77;11.07;;;;;;;14.19;74.95;99118.69;4261793;33;33227;-90
2023/05/14 10:32:48;;;;;;;13.48;11.05;;;;;;;14.33;74.01;99127.38;4273948;33;34921;-89
2023/05/14 10:35:21;;;;;;;12.85;10.43;;;;;;;14.47;72.91;99140.34;4275588;33;34017;-86
2023/05/14 10:37:50;;;;;;;14.80;11.95;;;;;;;14.68;72.02;99137.69;4281103;33;33640;-89
2023/05/14 10:40:18;;;;;;;15.88;11.12;;;;;;;14.35;72.96;99123.84;4288238;33;34319;-88
2023/05/14 10:42:45;;;;;;;12.70;10.20;;;;;;;14.48;73.24;99137.75;4286823;33;34112;-87
2023/05/14 10:45:14;;;;;;;12.50;9.30;;;;;;;14.51;72.27;99129.94;4287642;33;34320;-88
2023/05/14 10:47:44;;;;;;;15.52;10.45;;;;;;;14.52;71.20;99131.66;4274741;33;35394;-86
2023/05/14 10:50:14;;;;;;;13.13;10.52;;;;;;;14.57;72.24;99123.81;4289412;33;33823;-86
2023/05/14 10:52:43;;;;;;;13.00;10.80;;;;;;;14.20;72.36;99125.66;4281698;33;34031;-89
2023/05/14 10:55:15;;;;;;;13.48;10.63;;;;;;;14.20;72.96;99125.66;4274221;33;35034;-88
2023/05/14 10:57:44;;;;;;;13.75;10.70;;;;;;;14.24;73.87;99132.59;4274617;33;34261;-89
2023/05/14 11:00:13;;;;;;;13.82;10.23;;;;;;;14.28;73.07;99118.66;4284991;33;34410;-84
2023/05/14 11:02:43;;;;;;;14.50;11.12;;;;;;;14.18;73.11;99122.19;4274936;33;33892;-85
2023/05/14 11:05:14;;;;;;;16.67;10.63;;;;;;;14.00;73.33;99129.16;4283942;33;33776;-90
2023/05/14 11:07:44;;;;;;;12.55;10.13;;;;;;;14.14;72.51;99120.47;4281831;33;33623;-88
2023/05/14 11:10:20;;;;;;;20.75;11.57;;;;;;;14.20;73.95;99116.06;4287831;33;33435;-88
2023/05/14 11:12:49;;;;;;;14.50;11.57;;;;;;;14.20;73.12;99107.41;4287796;33;34778;-89
2023/05/14 11:15:19;;;;;;;13.50;11.27;;;;;;;13.96;74.32;99106.59;4287954;33;33759;-88
2023/05/14 11:17:48;;;;;;;14.65;12.02;;;;;;;14.27;72.66;99106.50;4287556;33;33989;-85
2023/05/14 11:20:16;;;;;;;18.65;12.93;;;;;;;14.01;73.84;99110.03;4287723;33;33683;-87
2023/05/14 11:22:46;;;;;;;16.80;12.07;;;;;;;14.19;73.05;99110.88;4287587;33;34002;-87
2023/05/14 11:25:13;;;;;;;16.15;11.75;;;;;;;14.18;73.25;99103.94;4286165;33;34133;-91
2023/05/14 11:27:43;;;;;;;14.63;10.65;;;;;;;14.36;72.08;99101.28;4288005;33;33936;-92